New Braunfels, Texas
Current Conditions -  °F | °C
As of 1:51 AM on Wednesday 22 Oct 2014 (Local Time) from KBAZ Reporting Station
Clear Clear  
Wind Chill: 64°   Ceiling: Unl
Heat Index: 64°   Visibility: 10mi
Dew Point: 50°   Wind: 5mph
Humidity: 60%   Direction: 30°NNE
Pressure: 30.04"   Gusts: NA
Location:  29.7°N, 98.12°W
Report Text: KBAZ 220651Z AUTO 03004KT 10SM CLR 18/10 A3004 RMK AO2 SLP164 T01780100
Loading
Personal Weather Stations






























Interactive Weather Map
Tropical Storm Tracking
New forecast layout! Learn more

10-Day Weather Forecast

Advertisements
Track Severe Weather on mobile